sensor_id;sensor_type;location;lat;lon;timestamp;P1;durP1;ratioP1;P2;durP2;ratioP2
44662;SDS011;30381;52.754;18.258;2023-05-07T00:01:26;26.80;;;15.70;;
44662;SDS011;30381;52.754;18.258;2023-05-07T00:03:53;30.30;;;16.00;;
44662;SDS011;30381;52.754;18.258;2023-05-07T00:06:19;26.60;;;16.40;;
44662;SDS011;30381;52.754;18.258;2023-05-07T00:08:45;32.70;;;16.10;;
44662;SDS011;30381;52.754;18.258;2023-05-07T00:11:12;28.40;;;16.70;;
44662;SDS011;30381;52.754;18.258;2023-05-07T00:13:38;29.10;;;16.30;;
44662;SDS011;30381;52.754;18.258;2023-05-07T00:16:04;26.90;;;16.00;;
44662;SDS011;30381;52.754;18.258;2023-05-07T00:18:31;29.30;;;16.90;;
44662;SDS011;30381;52.754;18.258;2023-05-07T00:20:58;33.70;;;16.70;;
44662;SDS011;30381;52.754;18.258;2023-05-07T00:23:24;26.90;;;14.20;;
44662;SDS011;30381;52.754;18.258;2023-05-07T00:25:50;32.00;;;16.70;;
44662;SDS011;30381;52.754;18.258;2023-05-07T00:28:17;32.50;;;15.90;;
44662;SDS011;30381;52.754;18.258;2023-05-07T00:30:43;29.40;;;16.30;;
44662;SDS011;30381;52.754;18.258;2023-05-07T00:33:10;31.40;;;17.00;;
44662;SDS011;30381;52.754;18.258;2023-05-07T00:35:36;27.40;;;16.80;;
44662;SDS011;30381;52.754;18.258;2023-05-07T00:38:02;25.50;;;16.00;;
44662;SDS011;30381;52.754;18.258;2023-05-07T00:40:31;26.30;;;15.00;;
44662;SDS011;30381;52.754;18.258;2023-05-07T00:42:58;30.20;;;15.90;;
44662;SDS011;30381;52.754;18.258;2023-05-07T00:45:28;26.50;;;15.20;;
44662;SDS011;30381;52.754;18.258;2023-05-07T00:47:57;28.10;;;15.50;;
44662;SDS011;30381;52.754;18.258;2023-05-07T00:50:29;28.30;;;15.80;;
44662;SDS011;30381;52.754;18.258;2023-05-07T00:52:56;31.80;;;17.10;;
44662;SDS011;30381;52.754;18.258;2023-05-07T00:55:23;27.60;;;16.90;;
44662;SDS011;30381;52.754;18.258;2023-05-07T00:57:49;39.00;;;24.30;;
44662;SDS011;30381;52.754;18.258;2023-05-07T01:00:16;32.90;;;20.60;;
44662;SDS011;30381;52.754;18.258;2023-05-07T01:02:44;33.80;;;19.90;;
44662;SDS011;30381;52.754;18.258;2023-05-07T01:05:11;28.60;;;16.80;;
44662;SDS011;30381;52.754;18.258;2023-05-07T01:07:40;30.00;;;17.20;;
44662;SDS011;30381;52.754;18.258;2023-05-07T01:10:08;40.90;;;19.60;;
44662;SDS011;30381;52.754;18.258;2023-05-07T01:12:37;43.60;;;20.70;;
44662;SDS011;30381;52.754;18.258;2023-05-07T01:15:05;36.90;;;19.40;;
44662;SDS011;30381;52.754;18.258;2023-05-07T01:17:34;34.30;;;18.50;;
44662;SDS011;30381;52.754;18.258;2023-05-07T01:20:02;33.90;;;18.20;;
44662;SDS011;30381;52.754;18.258;2023-05-07T01:22:33;34.40;;;18.90;;
44662;SDS011;30381;52.754;18.258;2023-05-07T01:25:02;28.50;;;17.40;;
44662;SDS011;30381;52.754;18.258;2023-05-07T01:27:29;31.40;;;17.90;;
44662;SDS011;30381;52.754;18.258;2023-05-07T01:29:56;34.40;;;18.00;;
44662;SDS011;30381;52.754;18.258;2023-05-07T01:32:40;31.60;;;17.70;;
44662;SDS011;30381;52.754;18.258;2023-05-07T01:37:50;33.90;;;18.40;;
44662;SDS011;30381;52.754;18.258;2023-05-07T01:40:17;34.30;;;20.40;;
44662;SDS011;30381;52.754;18.258;2023-05-07T01:42:43;44.10;;;23.00;;
44662;SDS011;30381;52.754;18.258;2023-05-07T01:45:11;41.90;;;23.10;;
44662;SDS011;30381;52.754;18.258;2023-05-07T01:47:37;37.20;;;21.60;;
44662;SDS011;30381;52.754;18.258;2023-05-07T01:50:05;40.10;;;22.00;;
44662;SDS011;30381;52.754;18.258;2023-05-07T01:52:32;33.40;;;19.40;;
44662;SDS011;30381;52.754;18.258;2023-05-07T01:54:58;30.90;;;17.40;;
44662;SDS011;30381;52.754;18.258;2023-05-07T01:57:24;27.20;;;15.90;;
44662;SDS011;30381;52.754;18.258;2023-05-07T01:59:50;25.10;;;16.20;;
44662;SDS011;30381;52.754;18.258;2023-05-07T02:02:16;29.10;;;17.00;;
44662;SDS011;30381;52.754;18.258;2023-05-07T02:04:42;26.80;;;15.10;;
44662;SDS011;30381;52.754;18.258;2023-05-07T02:07:08;26.10;;;16.40;;
44662;SDS011;30381;52.754;18.258;2023-05-07T02:09:35;31.20;;;15.90;;
44662;SDS011;30381;52.754;18.258;2023-05-07T02:12:01;27.80;;;16.00;;
44662;SDS011;30381;52.754;18.258;2023-05-07T02:14:28;31.60;;;16.80;;
44662;SDS011;30381;52.754;18.258;2023-05-07T02:16:54;32.50;;;16.20;;
44662;SDS011;30381;52.754;18.258;2023-05-07T02:19:20;31.70;;;17.60;;
44662;SDS011;30381;52.754;18.258;2023-05-07T02:21:47;34.40;;;16.60;;
44662;SDS011;30381;52.754;18.258;2023-05-07T02:24:13;33.50;;;17.50;;
44662;SDS011;30381;52.754;18.258;2023-05-07T02:26:40;34.40;;;20.00;;
44662;SDS011;30381;52.754;18.258;2023-05-07T02:29:07;32.20;;;17.00;;
44662;SDS011;30381;52.754;18.258;2023-05-07T02:31:33;31.60;;;17.20;;
44662;SDS011;30381;52.754;18.258;2023-05-07T02:34:02;30.60;;;16.80;;
44662;SDS011;30381;52.754;18.258;2023-05-07T02:36:28;31.80;;;16.80;;
44662;SDS011;30381;52.754;18.258;2023-05-07T02:38:54;31.60;;;17.00;;
44662;SDS011;30381;52.754;18.258;2023-05-07T02:41:20;30.90;;;17.60;;
44662;SDS011;30381;52.754;18.258;2023-05-07T02:43:46;29.40;;;16.40;;
44662;SDS011;30381;52.754;18.258;2023-05-07T02:46:12;29.50;;;16.50;;
44662;SDS011;30381;52.754;18.258;2023-05-07T02:48:38;32.40;;;18.30;;
44662;SDS011;30381;52.754;18.258;2023-05-07T02:51:05;33.40;;;17.50;;
44662;SDS011;30381;52.754;18.258;2023-05-07T02:53:31;32.50;;;17.20;;
44662;SDS011;30381;52.754;18.258;2023-05-07T02:55:58;30.30;;;17.40;;
44662;SDS011;30381;52.754;18.258;2023-05-07T02:58:25;31.90;;;16.60;;
44662;SDS011;30381;52.754;18.258;2023-05-07T03:00:52;29.10;;;17.10;;
44662;SDS011;30381;52.754;18.258;2023-05-07T03:03:20;31.00;;;17.00;;
44662;SDS011;30381;52.754;18.258;2023-05-07T03:05:46;33.20;;;16.70;;
44662;SDS011;30381;52.754;18.258;2023-05-07T03:08:12;32.50;;;17.20;;
44662;SDS011;30381;52.754;18.258;2023-05-07T03:10:39;32.00;;;16.00;;
44662;SDS011;30381;52.754;18.258;2023-05-07T03:13:05;31.60;;;17.60;;
44662;SDS011;30381;52.754;18.258;2023-05-07T03:15:31;36.30;;;17.40;;
44662;SDS011;30381;52.754;18.258;2023-05-07T03:17:57;32.30;;;16.70;;
44662;SDS011;30381;52.754;18.258;2023-05-07T03:20:23;30.00;;;16.40;;
44662;SDS011;30381;52.754;18.258;2023-05-07T03:22:49;32.10;;;16.80;;
44662;SDS011;30381;52.754;18.258;2023-05-07T03:25:15;31.10;;;16.40;;
44662;SDS011;30381;52.754;18.258;2023-05-07T03:27:42;34.10;;;17.60;;
44662;SDS011;30381;52.754;18.258;2023-05-07T03:30:08;30.70;;;16.60;;
44662;SDS011;30381;52.754;18.258;2023-05-07T03:32:35;27.00;;;15.50;;
44662;SDS011;30381;52.754;18.258;2023-05-07T03:35:01;30.90;;;15.00;;
44662;SDS011;30381;52.754;18.258;2023-05-07T03:37:28;28.40;;;15.80;;
44662;SDS011;30381;52.754;18.258;2023-05-07T03:39:54;27.00;;;15.00;;
44662;SDS011;30381;52.754;18.258;2023-05-07T03:42:20;28.80;;;15.00;;
44662;SDS011;30381;52.754;18.258;2023-05-07T03:44:46;29.60;;;16.40;;
44662;SDS011;30381;52.754;18.258;2023-05-07T03:47:12;27.10;;;15.70;;
44662;SDS011;30381;52.754;18.258;2023-05-07T03:49:39;25.90;;;15.00;;
44662;SDS011;30381;52.754;18.258;2023-05-07T03:52:05;25.30;;;15.10;;
44662;SDS011;30381;52.754;18.258;2023-05-07T03:54:33;28.10;;;15.80;;
44662;SDS011;30381;52.754;18.258;2023-05-07T03:56:59;27.20;;;16.00;;
44662;SDS011;30381;52.754;18.258;2023-05-07T03:59:25;21.70;;;13.80;;
44662;SDS011;30381;52.754;18.258;2023-05-07T04:01:51;21.60;;;12.40;;
44662;SDS011;30381;52.754;18.258;2023-05-07T04:04:17;18.70;;;11.30;;
44662;SDS011;30381;52.754;18.258;2023-05-07T04:06:43;17.50;;;11.20;;
44662;SDS011;30381;52.754;18.258;2023-05-07T04:09:10;17.20;;;10.20;;
44662;SDS011;30381;52.754;18.258;2023-05-07T04:11:36;15.60;;;9.60;;
44662;SDS011;30381;52.754;18.258;2023-05-07T04:14:02;16.40;;;9.70;;
44662;SDS011;30381;52.754;18.258;2023-05-07T04:16:28;16.00;;;9.30;;
44662;SDS011;30381;52.754;18.258;2023-05-07T04:18:54;14.20;;;9.00;;
44662;SDS011;30381;52.754;18.258;2023-05-07T04:21:20;13.90;;;8.60;;
44662;SDS011;30381;52.754;18.258;2023-05-07T04:23:47;13.90;;;9.10;;
44662;SDS011;30381;52.754;18.258;2023-05-07T04:26:14;13.90;;;8.60;;
44662;SDS011;30381;52.754;18.258;2023-05-07T04:28:42;14.60;;;7.70;;
44662;SDS011;30381;52.754;18.258;2023-05-07T04:31:08;13.70;;;6.90;;
44662;SDS011;30381;52.754;18.258;2023-05-07T04:33:34;12.20;;;7.00;;
44662;SDS011;30381;52.754;18.258;2023-05-07T04:36:01;13.70;;;7.10;;
44662;SDS011;30381;52.754;18.258;2023-05-07T04:38:29;12.20;;;7.00;;
44662;SDS011;30381;52.754;18.258;2023-05-07T04:40:56;13.40;;;6.40;;
44662;SDS011;30381;52.754;18.258;2023-05-07T04:43:23;12.50;;;7.10;;
44662;SDS011;30381;52.754;18.258;2023-05-07T04:45:50;11.30;;;6.30;;
44662;SDS011;30381;52.754;18.258;2023-05-07T04:48:19;12.20;;;6.90;;
44662;SDS011;30381;52.754;18.258;2023-05-07T04:50:51;12.20;;;6.40;;
44662;SDS011;30381;52.754;18.258;2023-05-07T04:53:18;12.90;;;6.80;;
44662;SDS011;30381;52.754;18.258;2023-05-07T04:55:44;11.90;;;7.30;;
44662;SDS011;30381;52.754;18.258;2023-05-07T04:58:11;10.60;;;7.20;;
44662;SDS011;30381;52.754;18.258;2023-05-07T05:00:38;12.00;;;7.10;;
44662;SDS011;30381;52.754;18.258;2023-05-07T05:03:06;13.50;;;6.80;;
44662;SDS011;30381;52.754;18.258;2023-05-07T05:05:32;12.10;;;7.00;;
44662;SDS011;30381;52.754;18.258;2023-05-07T05:07:59;12.10;;;7.10;;
44662;SDS011;30381;52.754;18.258;2023-05-07T05:10:25;13.60;;;7.10;;
44662;SDS011;30381;52.754;18.258;2023-05-07T05:12:52;11.20;;;6.70;;
44662;SDS011;30381;52.754;18.258;2023-05-07T05:15:18;12.20;;;6.60;;
44662;SDS011;30381;52.754;18.258;2023-05-07T05:17:44;13.00;;;6.80;;
44662;SDS011;30381;52.754;18.258;2023-05-07T05:20:10;12.70;;;6.50;;
44662;SDS011;30381;52.754;18.258;2023-05-07T05:22:38;12.50;;;6.20;;
44662;SDS011;30381;52.754;18.258;2023-05-07T05:25:04;11.40;;;6.10;;
44662;SDS011;30381;52.754;18.258;2023-05-07T05:27:30;10.80;;;5.50;;
44662;SDS011;30381;52.754;18.258;2023-05-07T05:29:57;10.10;;;5.80;;
44662;SDS011;30381;52.754;18.258;2023-05-07T05:32:23;12.30;;;7.00;;
44662;SDS011;30381;52.754;18.258;2023-05-07T05:34:49;9.40;;;5.20;;
44662;SDS011;30381;52.754;18.258;2023-05-07T05:37:15;10.70;;;6.10;;
44662;SDS011;30381;52.754;18.258;2023-05-07T05:39:44;11.30;;;7.00;;
44662;SDS011;30381;52.754;18.258;2023-05-07T05:42:12;10.20;;;5.30;;
44662;SDS011;30381;52.754;18.258;2023-05-07T05:44:38;10.40;;;6.00;;
44662;SDS011;30381;52.754;18.258;2023-05-07T05:47:07;9.90;;;5.70;;
44662;SDS011;30381;52.754;18.258;2023-05-07T05:49:33;7.90;;;4.20;;
44662;SDS011;30381;52.754;18.258;2023-05-07T05:52:00;9.00;;;4.40;;
44662;SDS011;30381;52.754;18.258;2023-05-07T05:54:26;7.90;;;3.60;;
44662;SDS011;30381;52.754;18.258;2023-05-07T05:56:52;7.00;;;3.60;;
44662;SDS011;30381;52.754;18.258;2023-05-07T05:59:18;7.40;;;3.70;;
44662;SDS011;30381;52.754;18.258;2023-05-07T06:01:44;7.70;;;3.40;;
44662;SDS011;30381;52.754;18.258;2023-05-07T06:04:10;8.40;;;3.20;;
44662;SDS011;30381;52.754;18.258;2023-05-07T06:06:36;6.60;;;3.20;;
44662;SDS011;30381;52.754;18.258;2023-05-07T06:09:03;8.40;;;3.60;;
44662;SDS011;30381;52.754;18.258;2023-05-07T06:11:29;8.80;;;3.50;;
44662;SDS011;30381;52.754;18.258;2023-05-07T06:13:55;20.30;;;10.50;;
44662;SDS011;30381;52.754;18.258;2023-05-07T06:16:21;9.70;;;4.30;;
44662;SDS011;30381;52.754;18.258;2023-05-07T06:18:47;7.80;;;3.40;;
44662;SDS011;30381;52.754;18.258;2023-05-07T06:21:13;5.50;;;2.90;;
44662;SDS011;30381;52.754;18.258;2023-05-07T06:23:40;7.60;;;3.00;;
44662;SDS011;30381;52.754;18.258;2023-05-07T06:26:07;7.70;;;3.30;;
44662;SDS011;30381;52.754;18.258;2023-05-07T06:28:33;7.20;;;3.10;;
44662;SDS011;30381;52.754;18.258;2023-05-07T06:31:12;9.40;;;3.40;;
44662;SDS011;30381;52.754;18.258;2023-05-07T06:33:38;7.70;;;3.40;;
44662;SDS011;30381;52.754;18.258;2023-05-07T06:36:05;7.40;;;2.90;;
44662;SDS011;30381;52.754;18.258;2023-05-07T06:38:31;6.90;;;3.50;;
44662;SDS011;30381;52.754;18.258;2023-05-07T06:40:57;7.30;;;3.30;;
44662;SDS011;30381;52.754;18.258;2023-05-07T06:43:24;9.00;;;3.70;;
44662;SDS011;30381;52.754;18.258;2023-05-07T06:45:50;8.40;;;3.20;;
44662;SDS011;30381;52.754;18.258;2023-05-07T06:48:16;9.40;;;3.60;;
44662;SDS011;30381;52.754;18.258;2023-05-07T06:50:42;6.70;;;3.20;;
44662;SDS011;30381;52.754;18.258;2023-05-07T06:53:08;8.10;;;3.50;;
44662;SDS011;30381;52.754;18.258;2023-05-07T06:55:34;9.30;;;4.50;;
44662;SDS011;30381;52.754;18.258;2023-05-07T06:58:00;9.10;;;3.30;;
44662;SDS011;30381;52.754;18.258;2023-05-07T07:00:27;8.20;;;3.30;;
44662;SDS011;30381;52.754;18.258;2023-05-07T07:02:53;8.40;;;3.40;;
44662;SDS011;30381;52.754;18.258;2023-05-07T07:05:20;7.20;;;3.50;;
44662;SDS011;30381;52.754;18.258;2023-05-07T07:07:46;12.80;;;5.50;;
44662;SDS011;30381;52.754;18.258;2023-05-07T07:10:19;8.90;;;3.70;;
44662;SDS011;30381;52.754;18.258;2023-05-07T07:12:46;9.90;;;4.30;;
44662;SDS011;30381;52.754;18.258;2023-05-07T07:15:13;8.30;;;3.50;;
44662;SDS011;30381;52.754;18.258;2023-05-07T07:17:41;10.60;;;3.40;;
44662;SDS011;30381;52.754;18.258;2023-05-07T07:20:07;8.20;;;3.70;;
44662;SDS011;30381;52.754;18.258;2023-05-07T07:22:34;8.80;;;3.60;;
44662;SDS011;30381;52.754;18.258;2023-05-07T07:25:00;8.50;;;3.50;;
44662;SDS011;30381;52.754;18.258;2023-05-07T07:27:26;7.40;;;3.60;;
44662;SDS011;30381;52.754;18.258;2023-05-07T07:29:53;14.40;;;5.60;;
44662;SDS011;30381;52.754;18.258;2023-05-07T07:32:19;8.10;;;3.70;;
44662;SDS011;30381;52.754;18.258;2023-05-07T07:34:45;12.40;;;4.90;;
44662;SDS011;30381;52.754;18.258;2023-05-07T07:37:12;12.30;;;5.90;;
44662;SDS011;30381;52.754;18.258;2023-05-07T07:39:38;7.80;;;3.40;;
44662;SDS011;30381;52.754;18.258;2023-05-07T07:42:04;8.80;;;3.90;;
44662;SDS011;30381;52.754;18.258;2023-05-07T07:44:33;9.30;;;4.10;;
44662;SDS011;30381;52.754;18.258;2023-05-07T07:47:00;8.50;;;4.20;;
44662;SDS011;30381;52.754;18.258;2023-05-07T07:49:33;15.30;;;7.20;;
44662;SDS011;30381;52.754;18.258;2023-05-07T07:52:07;13.30;;;5.80;;
44662;SDS011;30381;52.754;18.258;2023-05-07T07:54:41;7.60;;;3.50;;
44662;SDS011;30381;52.754;18.258;2023-05-07T07:57:12;8.20;;;3.40;;
44662;SDS011;30381;52.754;18.258;2023-05-07T07:59:42;8.70;;;3.10;;
44662;SDS011;30381;52.754;18.258;2023-05-07T08:02:35;7.80;;;3.50;;
44662;SDS011;30381;52.754;18.258;2023-05-07T08:05:04;9.80;;;3.60;;
44662;SDS011;30381;52.754;18.258;2023-05-07T08:07:56;7.40;;;3.70;;
44662;SDS011;30381;52.754;18.258;2023-05-07T08:11:14;14.70;;;6.80;;
44662;SDS011;30381;52.754;18.258;2023-05-07T08:13:51;8.90;;;3.50;;
44662;SDS011;30381;52.754;18.258;2023-05-07T08:16:35;8.50;;;3.10;;
44662;SDS011;30381;52.754;18.258;2023-05-07T08:19:09;10.40;;;3.80;;
44662;SDS011;30381;52.754;18.258;2023-05-07T08:21:38;6.80;;;3.00;;
44662;SDS011;30381;52.754;18.258;2023-05-07T08:24:09;7.80;;;3.20;;
44662;SDS011;30381;52.754;18.258;2023-05-07T08:26:47;6.40;;;2.80;;
44662;SDS011;30381;52.754;18.258;2023-05-07T08:29:33;6.00;;;2.80;;
44662;SDS011;30381;52.754;18.258;2023-05-07T08:32:02;7.40;;;2.90;;
44662;SDS011;30381;52.754;18.258;2023-05-07T08:34:38;7.70;;;3.00;;
44662;SDS011;30381;52.754;18.258;2023-05-07T08:39:56;6.40;;;3.00;;
44662;SDS011;30381;52.754;18.258;2023-05-07T08:42:25;7.40;;;3.10;;
44662;SDS011;30381;52.754;18.258;2023-05-07T08:45:09;12.30;;;6.50;;
44662;SDS011;30381;52.754;18.258;2023-05-07T08:47:54;9.90;;;4.80;;
44662;SDS011;30381;52.754;18.258;2023-05-07T08:50:43;8.00;;;3.30;;
44662;SDS011;30381;52.754;18.258;2023-05-07T08:53:09;10.20;;;4.00;;
44662;SDS011;30381;52.754;18.258;2023-05-07T08:55:38;6.50;;;2.80;;
44662;SDS011;30381;52.754;18.258;2023-05-07T08:58:14;6.20;;;2.60;;
44662;SDS011;30381;52.754;18.258;2023-05-07T09:01:14;5.90;;;2.50;;
44662;SDS011;30381;52.754;18.258;2023-05-07T09:03:47;6.90;;;2.50;;
44662;SDS011;30381;52.754;18.258;2023-05-07T09:06:25;7.50;;;3.00;;
44662;SDS011;30381;52.754;18.258;2023-05-07T09:09:04;6.50;;;2.50;;
44662;SDS011;30381;52.754;18.258;2023-05-07T09:11:32;6.40;;;2.70;;
44662;SDS011;30381;52.754;18.258;2023-05-07T09:14:05;9.30;;;3.70;;
44662;SDS011;30381;52.754;18.258;2023-05-07T09:16:38;6.30;;;2.70;;
44662;SDS011;30381;52.754;18.258;2023-05-07T09:19:27;7.00;;;2.40;;
44662;SDS011;30381;52.754;18.258;2023-05-07T09:22:05;7.50;;;3.60;;
44662;SDS011;30381;52.754;18.258;2023-05-07T09:25:06;8.60;;;3.10;;
44662;SDS011;30381;52.754;18.258;2023-05-07T09:27:57;6.60;;;2.90;;
44662;SDS011;30381;52.754;18.258;2023-05-07T09:30:50;5.60;;;2.60;;
44662;SDS011;30381;52.754;18.258;2023-05-07T09:33:38;7.20;;;2.90;;
44662;SDS011;30381;52.754;18.258;2023-05-07T09:36:19;6.70;;;3.40;;
44662;SDS011;30381;52.754;18.258;2023-05-07T09:39:04;7.50;;;2.50;;
44662;SDS011;30381;52.754;18.258;2023-05-07T09:41:36;5.90;;;2.60;;
44662;SDS011;30381;52.754;18.258;2023-05-07T09:44:20;6.60;;;2.40;;
44662;SDS011;30381;52.754;18.258;2023-05-07T09:46:53;5.30;;;2.20;;
44662;SDS011;30381;52.754;18.258;2023-05-07T09:49:23;7.70;;;3.10;;
44662;SDS011;30381;52.754;18.258;2023-05-07T09:52:02;6.20;;;2.50;;
44662;SDS011;30381;52.754;18.258;2023-05-07T09:54:39;5.40;;;2.30;;
44662;SDS011;30381;52.754;18.258;2023-05-07T09:57:11;5.60;;;2.20;;
44662;SDS011;30381;52.754;18.258;2023-05-07T09:59:43;6.50;;;2.50;;
44662;SDS011;30381;52.754;18.258;2023-05-07T10:02:15;6.60;;;2.80;;
44662;SDS011;30381;52.754;18.258;2023-05-07T10:04:47;8.40;;;3.70;;
44662;SDS011;30381;52.754;18.258;2023-05-07T10:07:33;6.30;;;2.70;;
44662;SDS011;30381;52.754;18.258;2023-05-07T10:10:03;5.80;;;2.60;;
44662;SDS011;30381;52.754;18.258;2023-05-07T10:12:32;6.80;;;3.00;;
44662;SDS011;30381;52.754;18.258;2023-05-07T10:15:10;8.80;;;2.90;;
44662;SDS011;30381;52.754;18.258;2023-05-07T10:17:50;6.20;;;2.50;;
44662;SDS011;30381;52.754;18.258;2023-05-07T10:20:30;5.30;;;2.20;;
44662;SDS011;30381;52.754;18.258;2023-05-07T10:23:06;6.00;;;2.40;;
44662;SDS011;30381;52.754;18.258;2023-05-07T10:25:36;6.00;;;2.30;;
44662;SDS011;30381;52.754;18.258;2023-05-07T10:28:04;7.10;;;2.80;;
44662;SDS011;30381;52.754;18.258;2023-05-07T10:36:05;6.90;;;2.60;;
44662;SDS011;30381;52.754;18.258;2023-05-07T10:38:33;8.00;;;2.60;;
44662;SDS011;30381;52.754;18.258;2023-05-07T10:41:01;7.60;;;3.00;;
44662;SDS011;30381;52.754;18.258;2023-05-07T10:43:39;7.10;;;2.80;;
44662;SDS011;30381;52.754;18.258;2023-05-07T10:46:11;5.60;;;2.40;;
44662;SDS011;30381;52.754;18.258;2023-05-07T10:51:31;6.50;;;2.60;;
44662;SDS011;30381;52.754;18.258;2023-05-07T10:56:40;6.70;;;2.30;;
44662;SDS011;30381;52.754;18.258;2023-05-07T11:02:02;5.80;;;2.00;;
44662;SDS011;30381;52.754;18.258;2023-05-07T11:04:36;5.50;;;2.20;;
44662;SDS011;30381;52.754;18.258;2023-05-07T11:07:17;8.00;;;2.20;;
44662;SDS011;30381;52.754;18.258;2023-05-07T11:15:39;7.20;;;2.20;;
44662;SDS011;30381;52.754;18.258;2023-05-07T11:18:21;5.30;;;2.20;;
44662;SDS011;30381;52.754;18.258;2023-05-07T11:24:22;5.20;;;2.00;;
44662;SDS011;30381;52.754;18.258;2023-05-07T11:26:51;6.00;;;2.30;;
44662;SDS011;30381;52.754;18.258;2023-05-07T11:29:28;8.30;;;3.50;;
44662;SDS011;30381;52.754;18.258;2023-05-07T11:32:04;5.90;;;2.50;;
44662;SDS011;30381;52.754;18.258;2023-05-07T11:34:39;5.30;;;2.20;;
44662;SDS011;30381;52.754;18.258;2023-05-07T11:37:11;8.10;;;2.80;;
44662;SDS011;30381;52.754;18.258;2023-05-07T11:39:38;11.20;;;2.90;;
44662;SDS011;30381;52.754;18.258;2023-05-07T11:42:04;6.60;;;2.70;;
44662;SDS011;30381;52.754;18.258;2023-05-07T11:44:43;4.50;;;2.30;;
44662;SDS011;30381;52.754;18.258;2023-05-07T11:47:16;7.00;;;2.50;;
44662;SDS011;30381;52.754;18.258;2023-05-07T11:49:46;5.70;;;2.60;;
44662;SDS011;30381;52.754;18.258;2023-05-07T11:52:14;9.00;;;2.40;;
44662;SDS011;30381;52.754;18.258;2023-05-07T11:54:41;7.50;;;3.10;;
44662;SDS011;30381;52.754;18.258;2023-05-07T11:57:16;8.20;;;3.60;;
44662;SDS011;30381;52.754;18.258;2023-05-07T11:59:42;8.50;;;3.60;;
44662;SDS011;30381;52.754;18.258;2023-05-07T12:02:16;9.40;;;4.70;;
44662;SDS011;30381;52.754;18.258;2023-05-07T12:04:45;5.90;;;2.40;;
44662;SDS011;30381;52.754;18.258;2023-05-07T12:07:43;9.80;;;4.00;;
44662;SDS011;30381;52.754;18.258;2023-05-07T12:10:42;5.50;;;2.40;;
44662;SDS011;30381;52.754;18.258;2023-05-07T12:27:52;6.10;;;2.30;;
44662;SDS011;30381;52.754;18.258;2023-05-07T12:30:19;11.70;;;3.50;;
44662;SDS011;30381;52.754;18.258;2023-05-07T12:32:47;7.30;;;2.30;;
44662;SDS011;30381;52.754;18.258;2023-05-07T12:35:32;4.30;;;1.90;;
44662;SDS011;30381;52.754;18.258;2023-05-07T12:38:02;5.70;;;1.90;;
44662;SDS011;30381;52.754;18.258;2023-05-07T12:40:38;5.10;;;2.10;;
44662;SDS011;30381;52.754;18.258;2023-05-07T12:43:07;5.50;;;2.20;;
44662;SDS011;30381;52.754;18.258;2023-05-07T12:45:42;5.50;;;1.90;;
44662;SDS011;30381;52.754;18.258;2023-05-07T12:48:14;4.60;;;2.00;;
44662;SDS011;30381;52.754;18.258;2023-05-07T12:50:42;6.00;;;2.60;;
44662;SDS011;30381;52.754;18.258;2023-05-07T12:53:11;7.10;;;2.90;;
44662;SDS011;30381;52.754;18.258;2023-05-07T12:55:49;5.90;;;2.80;;
44662;SDS011;30381;52.754;18.258;2023-05-07T12:58:23;6.20;;;2.10;;
44662;SDS011;30381;52.754;18.258;2023-05-07T13:00:53;4.40;;;2.20;;
44662;SDS011;30381;52.754;18.258;2023-05-07T13:03:25;8.30;;;1.80;;
44662;SDS011;30381;52.754;18.258;2023-05-07T13:06:09;5.20;;;2.20;;
44662;SDS011;30381;52.754;18.258;2023-05-07T13:08:39;8.20;;;2.80;;
44662;SDS011;30381;52.754;18.258;2023-05-07T13:11:07;7.30;;;2.20;;
44662;SDS011;30381;52.754;18.258;2023-05-07T13:13:35;3.60;;;2.00;;
44662;SDS011;30381;52.754;18.258;2023-05-07T13:16:08;5.40;;;2.20;;
44662;SDS011;30381;52.754;18.258;2023-05-07T13:18:37;5.70;;;2.30;;
44662;SDS011;30381;52.754;18.258;2023-05-07T13:21:05;5.40;;;1.80;;
44662;SDS011;30381;52.754;18.258;2023-05-07T13:23:33;5.50;;;2.20;;
44662;SDS011;30381;52.754;18.258;2023-05-07T13:26:02;6.60;;;2.90;;
44662;SDS011;30381;52.754;18.258;2023-05-07T13:28:41;6.30;;;2.30;;
44662;SDS011;30381;52.754;18.258;2023-05-07T13:31:13;10.10;;;4.00;;
44662;SDS011;30381;52.754;18.258;2023-05-07T13:33:42;5.60;;;2.20;;
44662;SDS011;30381;52.754;18.258;2023-05-07T13:36:26;5.90;;;2.50;;
44662;SDS011;30381;52.754;18.258;2023-05-07T13:38:55;5.30;;;2.30;;
44662;SDS011;30381;52.754;18.258;2023-05-07T13:41:36;7.20;;;2.20;;
44662;SDS011;30381;52.754;18.258;2023-05-07T13:46:57;8.70;;;3.10;;
44662;SDS011;30381;52.754;18.258;2023-05-07T13:49:44;8.00;;;2.80;;
44662;SDS011;30381;52.754;18.258;2023-05-07T13:52:16;7.00;;;2.20;;
44662;SDS011;30381;52.754;18.258;2023-05-07T14:02:05;9.60;;;5.60;;
44662;SDS011;30381;52.754;18.258;2023-05-07T14:04:44;5.50;;;2.40;;
44662;SDS011;30381;52.754;18.258;2023-05-07T14:08:03;28.20;;;22.80;;
44662;SDS011;30381;52.754;18.258;2023-05-07T14:43:19;6.10;;;2.20;;
44662;SDS011;30381;52.754;18.258;2023-05-07T14:46:27;7.50;;;2.60;;
44662;SDS011;30381;52.754;18.258;2023-05-07T14:53:27;5.70;;;2.40;;
44662;SDS011;30381;52.754;18.258;2023-05-07T14:56:59;8.10;;;2.70;;
44662;SDS011;30381;52.754;18.258;2023-05-07T15:44:53;5.50;;;2.50;;
44662;SDS011;30381;52.754;18.258;2023-05-07T15:48:17;8.80;;;2.60;;
44662;SDS011;30381;52.754;18.258;2023-05-07T15:51:09;9.60;;;3.50;;
44662;SDS011;30381;52.754;18.258;2023-05-07T15:57:53;5.80;;;2.10;;
44662;SDS011;30381;52.754;18.258;2023-05-07T16:00:41;7.90;;;2.30;;
44662;SDS011;30381;52.754;18.258;2023-05-07T16:03:24;5.90;;;2.50;;
44662;SDS011;30381;52.754;18.258;2023-05-07T16:06:00;8.90;;;2.70;;
44662;SDS011;30381;52.754;18.258;2023-05-07T16:08:44;6.70;;;2.80;;
44662;SDS011;30381;52.754;18.258;2023-05-07T16:11:17;7.10;;;2.60;;
44662;SDS011;30381;52.754;18.258;2023-05-07T16:14:09;8.90;;;2.80;;
44662;SDS011;30381;52.754;18.258;2023-05-07T16:16:38;6.80;;;2.50;;
44662;SDS011;30381;52.754;18.258;2023-05-07T16:19:07;6.10;;;2.50;;
44662;SDS011;30381;52.754;18.258;2023-05-07T16:21:36;6.40;;;2.70;;
44662;SDS011;30381;52.754;18.258;2023-05-07T16:24:22;8.50;;;2.80;;
44662;SDS011;30381;52.754;18.258;2023-05-07T16:27:01;7.30;;;2.70;;
44662;SDS011;30381;52.754;18.258;2023-05-07T16:29:42;7.90;;;2.90;;
44662;SDS011;30381;52.754;18.258;2023-05-07T16:32:17;7.20;;;3.10;;
44662;SDS011;30381;52.754;18.258;2023-05-07T16:34:52;10.10;;;4.00;;
44662;SDS011;30381;52.754;18.258;2023-05-07T16:37:32;11.70;;;5.80;;
44662;SDS011;30381;52.754;18.258;2023-05-07T16:40:52;8.90;;;4.00;;
44662;SDS011;30381;52.754;18.258;2023-05-07T16:43:32;8.80;;;3.20;;
44662;SDS011;30381;52.754;18.258;2023-05-07T16:46:05;8.20;;;3.40;;
44662;SDS011;30381;52.754;18.258;2023-05-07T16:48:47;6.60;;;2.90;;
44662;SDS011;30381;52.754;18.258;2023-05-07T16:51:16;7.60;;;2.80;;
44662;SDS011;30381;52.754;18.258;2023-05-07T16:54:05;7.70;;;3.50;;
44662;SDS011;30381;52.754;18.258;2023-05-07T16:57:07;10.30;;;3.20;;
44662;SDS011;30381;52.754;18.258;2023-05-07T16:59:52;9.00;;;3.50;;
44662;SDS011;30381;52.754;18.258;2023-05-07T17:19:40;7.20;;;2.40;;
44662;SDS011;30381;52.754;18.258;2023-05-07T17:22:10;7.40;;;2.70;;
44662;SDS011;30381;52.754;18.258;2023-05-07T17:24:37;7.30;;;3.10;;
44662;SDS011;30381;52.754;18.258;2023-05-07T17:27:03;6.30;;;2.90;;
44662;SDS011;30381;52.754;18.258;2023-05-07T17:29:31;9.00;;;3.00;;